Time;durP1;ratioP1;P1;durP2;ratioP2;P2;SDS_P1;SDS_P2;PMS_P1;PMS_P2;Temp;Humidity;BMP_temperature;BMP_pressure;BME280_temperature;BME280_humidity;BME280_pressure;Samples;Min_cycle;Max_cycle;Signal;HPM_P1;HPM_P2
2023/11/12 00:00:31;;;;;;;5.00;4.43;;;;;;;;;;5008928;28;20050;-85
2023/11/12 00:02:58;;;;;;;4.75;4.13;;;;;;;;;;4977512;28;20062;-85
2023/11/12 00:05:29;;;;;;;6.20;4.57;;;;;;;;;;4992763;28;20039;-86
2023/11/12 00:07:57;;;;;;;7.90;5.50;;;;;;;;;;4989020;28;20053;-86
2023/11/12 00:10:24;;;;;;;5.75;5.15;;;;;;;;;;4976008;28;20528;-86
2023/11/12 00:12:52;;;;;;;5.10;4.47;;;;;;;;;;4977155;28;20062;-86
2023/11/12 00:15:21;;;;;;;7.65;4.88;;;;;;;;;;4969615;28;20058;-85
2023/11/12 00:17:48;;;;;;;9.75;5.78;;;;;;;;;;4972509;28;20054;-85
2023/11/12 00:20:17;;;;;;;5.03;4.55;;;;;;;;;;4986173;28;20421;-85
2023/11/12 00:22:47;;;;;;;4.63;4.22;;;;;;;;;;4974405;28;20062;-85
2023/11/12 00:25:14;;;;;;;5.88;4.82;;;;;;;;;;4969409;28;20039;-85
2023/11/12 00:27:44;;;;;;;5.55;4.38;;;;;;;;;;4974347;28;20054;-85
2023/11/12 00:30:12;;;;;;;5.90;4.70;;;;;;;;;;4966657;28;20822;-85
2023/11/12 00:32:39;;;;;;;9.13;5.28;;;;;;;;;;4990292;28;20063;-85
2023/11/12 00:35:09;;;;;;;5.05;4.55;;;;;;;;;;4953595;28;20054;-85
2023/11/12 00:37:39;;;;;;;6.57;5.53;;;;;;;;;;4934857;28;20059;-85
2023/11/12 00:40:10;;;;;;;8.32;6.28;;;;;;;;;;4973820;28;20054;-85
2023/11/12 00:42:39;;;;;;;5.55;5.00;;;;;;;;;;4939522;28;20046;-85
2023/11/12 00:45:08;;;;;;;6.80;5.35;;;;;;;;;;4994879;28;20051;-85
2023/11/12 00:47:40;;;;;;;7.78;6.03;;;;;;;;;;4974107;28;20517;-84
2023/11/12 00:50:11;;;;;;;6.32;4.97;;;;;;;;;;4958043;28;20424;-85
2023/11/12 00:52:41;;;;;;;5.72;4.75;;;;;;;;;;4970395;28;20057;-85
2023/11/12 00:55:11;;;;;;;6.53;5.28;;;;;;;;;;4950299;28;20054;-85
2023/11/12 00:57:38;;;;;;;4.85;4.03;;;;;;;;;;4968618;28;20066;-85
2023/11/12 01:00:08;;;;;;;5.75;5.15;;;;;;;;;;4972028;28;20057;-85
2023/11/12 01:02:38;;;;;;;6.93;5.50;;;;;;;;;;4962468;28;20050;-85
2023/11/12 01:05:07;;;;;;;6.07;4.43;;;;;;;;;;4954467;28;20417;-85
2023/11/12 01:07:37;;;;;;;6.07;5.20;;;;;;;;;;4973798;28;20066;-86
2023/11/12 01:10:07;;;;;;;6.00;5.20;;;;;;;;;;4987325;28;20050;-86
2023/11/12 01:12:40;;;;;;;8.88;4.47;;;;;;;;;;4973668;28;20058;-85
2023/11/12 01:15:09;;;;;;;6.90;5.90;;;;;;;;;;4964239;28;20054;-86
2023/11/12 01:17:39;;;;;;;5.97;5.10;;;;;;;;;;4950982;28;20054;-86
2023/11/12 01:20:12;;;;;;;6.55;4.45;;;;;;;;;;4973444;28;20401;-85
2023/11/12 01:22:40;;;;;;;5.38;4.88;;;;;;;;;;4956904;28;20054;-85
2023/11/12 01:25:09;;;;;;;7.32;5.95;;;;;;;;;;4989066;28;20051;-85
2023/11/12 01:27:36;;;;;;;7.45;6.00;;;;;;;;;;4984541;28;20047;-85
2023/11/12 01:30:04;;;;;;;6.55;5.10;;;;;;;;;;4970677;28;20058;-86
2023/11/12 01:32:33;;;;;;;7.30;6.28;;;;;;;;;;4967276;28;20051;-85
2023/11/12 01:35:02;;;;;;;5.35;4.32;;;;;;;;;;4983748;28;20062;-86
2023/11/12 01:37:34;;;;;;;6.45;4.45;;;;;;;;;;4968911;28;20054;-86
2023/11/12 01:40:04;;;;;;;5.15;4.65;;;;;;;;;;4970426;28;20058;-86
2023/11/12 01:42:33;;;;;;;5.85;4.15;;;;;;;;;;4949385;28;20055;-85
2023/11/12 01:45:00;;;;;;;4.90;4.40;;;;;;;;;;4969143;28;20058;-85
2023/11/12 01:47:31;;;;;;;8.07;5.35;;;;;;;;;;5003032;22;20046;-81
2023/11/12 01:49:58;;;;;;;5.30;4.35;;;;;;;;;;4980904;28;20058;-81
2023/11/12 01:52:26;;;;;;;8.13;6.25;;;;;;;;;;4968609;28;20050;-81
2023/11/12 01:54:57;;;;;;;5.85;5.15;;;;;;;;;;4998279;28;20497;-81
2023/11/12 01:57:26;;;;;;;6.20;4.72;;;;;;;;;;4980829;28;20050;-81
2023/11/12 01:59:54;;;;;;;4.75;4.07;;;;;;;;;;5001165;28;20050;-81
2023/11/12 02:02:24;;;;;;;6.30;4.03;;;;;;;;;;4978529;28;20114;-82
2023/11/12 02:04:51;;;;;;;6.53;4.95;;;;;;;;;;4986916;28;20053;-82
2023/11/12 02:07:21;;;;;;;6.68;4.60;;;;;;;;;;4990802;28;20054;-82
2023/11/12 02:09:54;;;;;;;5.45;4.13;;;;;;;;;;4978698;28;20054;-82
2023/11/12 02:12:27;;;;;;;8.25;5.43;;;;;;;;;;4999022;28;20057;-82
2023/11/12 02:14:55;;;;;;;5.85;3.92;;;;;;;;;;4999222;28;20046;-82
2023/11/12 02:17:26;;;;;;;5.03;4.47;;;;;;;;;;4996310;28;20043;-82
2023/11/12 02:19:53;;;;;;;6.22;4.38;;;;;;;;;;4989384;28;20050;-82
2023/11/12 02:22:20;;;;;;;5.03;4.53;;;;;;;;;;4988884;28;20039;-82
2023/11/12 02:24:49;;;;;;;4.78;4.28;;;;;;;;;;4986574;28;20061;-82
2023/11/12 02:27:18;;;;;;;6.95;4.55;;;;;;;;;;4997996;28;20396;-82
2023/11/12 02:29:50;;;;;;;6.15;5.55;;;;;;;;;;4996507;28;20057;-82
2023/11/12 02:32:18;;;;;;;4.72;4.00;;;;;;;;;;4971347;28;20047;-82
2023/11/12 02:34:45;;;;;;;5.80;3.65;;;;;;;;;;4977610;28;20050;-82
2023/11/12 02:37:15;;;;;;;5.75;4.15;;;;;;;;;;4976334;28;20125;-82
2023/11/12 02:39:43;;;;;;;6.20;4.47;;;;;;;;;;4978628;28;20097;-82
2023/11/12 02:42:12;;;;;;;6.28;4.43;;;;;;;;;;4982307;28;20055;-81
2023/11/12 02:44:41;;;;;;;4.72;3.67;;;;;;;;;;4981548;28;20057;-81
2023/11/12 02:47:09;;;;;;;5.03;4.53;;;;;;;;;;4960761;28;20432;-81
2023/11/12 02:49:49;;;;;;;6.80;4.30;;;;;;;;;;4975432;28;20062;-81
2023/11/12 02:52:16;;;;;;;6.93;4.90;;;;;;;;;;4971891;28;20062;-82
2023/11/12 02:54:43;;;;;;;4.55;3.88;;;;;;;;;;4975719;28;20091;-82
2023/11/12 02:57:12;;;;;;;4.43;3.75;;;;;;;;;;4975896;28;20046;-82
2023/11/12 02:59:40;;;;;;;4.95;3.92;;;;;;;;;;4974310;28;20058;-82
2023/11/12 03:02:07;;;;;;;5.18;4.63;;;;;;;;;;4976053;28;20069;-82
2023/11/12 03:04:37;;;;;;;4.30;3.30;;;;;;;;;;4995535;28;20077;-82
2023/11/12 03:07:07;;;;;;;5.05;4.10;;;;;;;;;;4982969;28;20047;-82
2023/11/12 03:09:36;;;;;;;5.55;5.00;;;;;;;;;;4992144;28;20053;-82
2023/11/12 03:12:05;;;;;;;7.20;4.40;;;;;;;;;;4977957;28;20054;-82
2023/11/12 03:14:36;;;;;;;4.95;4.05;;;;;;;;;;4988605;28;20061;-82
2023/11/12 03:17:03;;;;;;;6.72;3.92;;;;;;;;;;4976129;28;20055;-82
2023/11/12 03:19:34;;;;;;;4.10;3.67;;;;;;;;;;4998871;28;20050;-82
2023/11/12 03:22:04;;;;;;;4.10;3.70;;;;;;;;;;4974784;28;20051;-82
2023/11/12 03:24:31;;;;;;;4.60;3.70;;;;;;;;;;4991715;28;20058;-82
2023/11/12 03:26:58;;;;;;;4.32;3.92;;;;;;;;;;4968570;28;20055;-82
2023/11/12 03:29:26;;;;;;;7.00;4.57;;;;;;;;;;4981342;28;20054;-82
2023/11/12 03:31:55;;;;;;;4.65;3.25;;;;;;;;;;4985907;28;20050;-82
2023/11/12 03:34:24;;;;;;;4.65;3.92;;;;;;;;;;4968726;28;20070;-82
2023/11/12 03:36:56;;;;;;;6.18;3.80;;;;;;;;;;4972687;28;20049;-82
2023/11/12 03:39:26;;;;;;;3.75;3.15;;;;;;;;;;4966922;28;20050;-82
2023/11/12 03:41:54;;;;;;;4.93;4.03;;;;;;;;;;4978451;28;20050;-82
2023/11/12 03:44:23;;;;;;;3.05;2.75;;;;;;;;;;4993939;28;20411;-82
2023/11/12 03:46:50;;;;;;;5.07;3.67;;;;;;;;;;4976050;28;20055;-82
2023/11/12 03:49:19;;;;;;;5.38;4.18;;;;;;;;;;4964962;28;20058;-82
2023/11/12 03:51:47;;;;;;;5.20;4.70;;;;;;;;;;4969663;28;20066;-82
2023/11/12 03:54:14;;;;;;;4.70;3.80;;;;;;;;;;4988202;28;20058;-82
2023/11/12 03:56:41;;;;;;;6.70;4.88;;;;;;;;;;4996088;28;20057;-82
2023/11/12 03:59:08;;;;;;;7.78;4.88;;;;;;;;;;4984983;28;20412;-82
2023/11/12 04:01:36;;;;;;;5.68;3.55;;;;;;;;;;5001918;28;20046;-82
2023/11/12 04:04:04;;;;;;;6.38;3.72;;;;;;;;;;4997753;28;20053;-82
2023/11/12 04:06:33;;;;;;;5.88;4.75;;;;;;;;;;4983553;28;20065;-82
2023/11/12 04:09:02;;;;;;;7.10;4.13;;;;;;;;;;4981594;28;20505;-82
2023/11/12 04:11:30;;;;;;;4.07;3.10;;;;;;;;;;4998144;28;20501;-82
2023/11/12 04:13:59;;;;;;;7.68;3.70;;;;;;;;;;4984748;28;20061;-82
2023/11/12 04:16:27;;;;;;;4.07;3.65;;;;;;;;;;4982610;28;20050;-82
2023/11/12 04:18:54;;;;;;;5.72;3.10;;;;;;;;;;4981719;28;20054;-82
2023/11/12 04:21:21;;;;;;;5.07;3.50;;;;;;;;;;4977047;28;20058;-82
2023/11/12 04:23:52;;;;;;;3.75;3.25;;;;;;;;;;4990510;28;20062;-82
2023/11/12 04:26:22;;;;;;;4.35;2.95;;;;;;;;;;4993056;28;20042;-82
2023/11/12 04:28:51;;;;;;;5.22;3.53;;;;;;;;;;5002333;28;20054;-82
2023/11/12 04:31:19;;;;;;;3.83;3.42;;;;;;;;;;5000173;28;20436;-82
2023/11/12 04:33:46;;;;;;;5.70;4.72;;;;;;;;;;4980771;28;20537;-82
2023/11/12 04:36:18;;;;;;;5.45;4.22;;;;;;;;;;4994223;28;20053;-82
2023/11/12 04:38:48;;;;;;;5.57;4.43;;;;;;;;;;5003609;28;20046;-82
2023/11/12 04:41:17;;;;;;;7.97;5.00;;;;;;;;;;4977602;28;20058;-82
2023/11/12 04:43:44;;;;;;;7.05;4.15;;;;;;;;;;4984278;28;20058;-82
2023/11/12 04:46:12;;;;;;;9.05;5.07;;;;;;;;;;5000057;28;20050;-82
2023/11/12 04:48:44;;;;;;;9.85;4.88;;;;;;;;;;4987354;28;20062;-82
2023/11/12 04:51:11;;;;;;;7.22;4.60;;;;;;;;;;4995904;28;20054;-82
2023/11/12 04:53:42;;;;;;;6.78;4.18;;;;;;;;;;4993773;28;20050;-82
2023/11/12 04:56:12;;;;;;;14.18;5.40;;;;;;;;;;4993804;28;20058;-82
2023/11/12 04:58:45;;;;;;;7.28;6.47;;;;;;;;;;4996270;28;20500;-82
2023/11/12 05:01:12;;;;;;;10.02;7.68;;;;;;;;;;4999312;28;20051;-82
2023/11/12 05:03:40;;;;;;;8.52;5.28;;;;;;;;;;5005678;28;20046;-82
2023/11/12 05:06:08;;;;;;;7.68;5.03;;;;;;;;;;4990825;28;20042;-82
2023/11/12 05:08:35;;;;;;;6.32;5.28;;;;;;;;;;4991480;28;20033;-82
2023/11/12 05:11:03;;;;;;;12.60;6.07;;;;;;;;;;5018912;28;20030;-82
2023/11/12 05:13:30;;;;;;;9.23;5.35;;;;;;;;;;4998907;28;20055;-82
2023/11/12 05:15:59;;;;;;;7.97;5.07;;;;;;;;;;5004822;28;20054;-82
2023/11/12 05:18:26;;;;;;;9.75;6.53;;;;;;;;;;5000282;28;20038;-82
2023/11/12 05:20:53;;;;;;;6.70;4.97;;;;;;;;;;4978718;28;20065;-82
2023/11/12 05:23:21;;;;;;;8.98;5.68;;;;;;;;;;4983097;28;20051;-82
2023/11/12 05:25:54;;;;;;;8.90;4.63;;;;;;;;;;4982156;28;20524;-82
2023/11/12 05:28:23;;;;;;;5.50;3.75;;;;;;;;;;4978748;28;20054;-82
2023/11/12 05:30:52;;;;;;;6.03;5.43;;;;;;;;;;4984816;28;20054;-82
2023/11/12 05:33:24;;;;;;;6.47;4.50;;;;;;;;;;4973235;28;20050;-82
2023/11/12 05:35:53;;;;;;;5.53;4.95;;;;;;;;;;4989199;28;20050;-82
2023/11/12 05:38:23;;;;;;;5.00;4.28;;;;;;;;;;4998230;28;20053;-81
2023/11/12 05:40:52;;;;;;;10.95;7.93;;;;;;;;;;4988461;28;20055;-81
2023/11/12 05:43:22;;;;;;;32.20;9.35;;;;;;;;;;4991969;28;20061;-82
2023/11/12 05:45:49;;;;;;;9.55;7.43;;;;;;;;;;4991129;28;20050;-82
2023/11/12 05:48:19;;;;;;;11.35;6.50;;;;;;;;;;4972552;28;20043;-82
2023/11/12 05:50:48;;;;;;;10.48;6.43;;;;;;;;;;4994240;28;20050;-82
2023/11/12 05:53:16;;;;;;;9.20;6.15;;;;;;;;;;4990643;28;20050;-82
2023/11/12 05:55:45;;;;;;;12.02;7.65;;;;;;;;;;4978396;28;20050;-82
2023/11/12 05:58:15;;;;;;;11.70;8.40;;;;;;;;;;4970255;28;20054;-82
2023/11/12 06:00:42;;;;;;;7.82;5.88;;;;;;;;;;4982648;28;20057;-82
2023/11/12 06:03:09;;;;;;;7.53;5.85;;;;;;;;;;4982721;28;20392;-82
2023/11/12 06:05:36;;;;;;;8.18;5.53;;;;;;;;;;4991540;28;20061;-82
2023/11/12 06:08:05;;;;;;;5.70;4.72;;;;;;;;;;4994250;28;20073;-82
2023/11/12 06:10:32;;;;;;;7.65;5.10;;;;;;;;;;4995591;28;20061;-82
2023/11/12 06:12:59;;;;;;;6.03;5.30;;;;;;;;;;4987190;28;20051;-82
2023/11/12 06:15:29;;;;;;;9.20;5.47;;;;;;;;;;4985773;28;20062;-82
2023/11/12 06:17:56;;;;;;;12.25;5.32;;;;;;;;;;4995985;28;20049;-82
2023/11/12 06:20:26;;;;;;;6.18;4.32;;;;;;;;;;4993610;28;20050;-82
2023/11/12 06:22:56;;;;;;;8.02;5.93;;;;;;;;;;4978418;28;20054;-82
2023/11/12 06:25:25;;;;;;;8.30;5.20;;;;;;;;;;4991574;28;20057;-83
2023/11/12 06:27:54;;;;;;;18.83;4.55;;;;;;;;;;4966587;28;20050;-83
2023/11/12 06:30:24;;;;;;;8.77;6.03;;;;;;;;;;4971801;28;20050;-82
2023/11/12 06:32:52;;;;;;;10.52;6.45;;;;;;;;;;4990561;28;20046;-83
2023/11/12 06:35:19;;;;;;;12.38;7.05;;;;;;;;;;4987833;28;20049;-82
2023/11/12 06:37:49;;;;;;;10.23;6.88;;;;;;;;;;4993209;28;20050;-83
2023/11/12 06:40:18;;;;;;;34.85;6.65;;;;;;;;;;4988384;28;20424;-83
2023/11/12 06:42:47;;;;;;;13.38;6.40;;;;;;;;;;4983552;28;20054;-83
2023/11/12 06:45:14;;;;;;;13.38;7.50;;;;;;;;;;4985781;28;20042;-83
2023/11/12 06:47:42;;;;;;;14.77;6.68;;;;;;;;;;4968355;28;20038;-83
2023/11/12 06:50:41;;;;;;;11.80;6.15;;;;;;;;;;5013291;23;20389;-82
2023/11/12 07:46:53;;;;;;;7.18;6.45;;;;;;;;;;5010533;22;20418;-80
2023/11/12 07:49:20;;;;;;;9.60;6.93;;;;;;;;;;5012873;28;20044;-80
2023/11/12 07:51:51;;;;;;;7.03;5.75;;;;;;;;;;5031662;28;20045;-80
2023/11/12 07:54:18;;;;;;;8.48;5.90;;;;;;;;;;5019901;28;20064;-80
2023/11/12 07:56:45;;;;;;;7.53;6.53;;;;;;;;;;5044517;28;20042;-81
2023/11/12 07:59:15;;;;;;;7.18;6.45;;;;;;;;;;5011597;28;20048;-80
2023/11/12 08:01:47;;;;;;;6.47;4.47;;;;;;;;;;5014040;28;20068;-80
2023/11/12 08:04:15;;;;;;;7.25;5.55;;;;;;;;;;5013399;28;20513;-80
2023/11/12 08:06:45;;;;;;;5.35;4.85;;;;;;;;;;5013294;28;20045;-80
2023/11/12 08:09:14;;;;;;;6.65;5.88;;;;;;;;;;5034600;28;20041;-80
2023/11/12 08:11:42;;;;;;;6.22;5.20;;;;;;;;;;5040418;28;20519;-80
2023/11/12 08:14:09;;;;;;;7.60;5.55;;;;;;;;;;5001866;28;20049;-80
2023/11/12 08:16:39;;;;;;;7.95;6.82;;;;;;;;;;5045032;28;20063;-80
2023/11/12 08:19:06;;;;;;;7.20;6.47;;;;;;;;;;5003206;28;20057;-85
2023/11/12 08:21:35;;;;;;;9.65;8.35;;;;;;;;;;5024442;28;20049;-85
2023/11/12 08:24:07;;;;;;;10.73;9.63;;;;;;;;;;5008657;28;20057;-85
2023/11/12 08:26:38;;;;;;;12.13;9.20;;;;;;;;;;5013164;28;20495;-85
2023/11/12 08:29:08;;;;;;;9.65;8.27;;;;;;;;;;5028229;28;20064;-85
2023/11/12 08:31:36;;;;;;;7.50;6.60;;;;;;;;;;5028029;28;20044;-85
2023/11/12 08:34:04;;;;;;;6.90;6.13;;;;;;;;;;5012089;28;20056;-86
2023/11/12 08:36:31;;;;;;;8.32;7.47;;;;;;;;;;5017962;28;20053;-85
2023/11/12 08:39:03;;;;;;;6.75;6.13;;;;;;;;;;5049052;28;20041;-86
2023/11/12 08:41:33;;;;;;;7.50;5.72;;;;;;;;;;5030517;28;20466;-86
2023/11/12 08:44:00;;;;;;;6.25;5.53;;;;;;;;;;5051320;28;20510;-85
2023/11/12 08:46:33;;;;;;;6.10;4.75;;;;;;;;;;5033556;28;20060;-85
2023/11/12 08:49:02;;;;;;;7.30;5.35;;;;;;;;;;5016960;28;20049;-85
2023/11/12 08:51:31;;;;;;;8.07;5.70;;;;;;;;;;5042980;28;20051;-85
2023/11/12 08:54:03;;;;;;;7.80;5.18;;;;;;;;;;5059191;28;20048;-86
2023/11/12 08:56:30;;;;;;;5.65;3.75;;;;;;;;;;5054926;28;20056;-85
2023/11/12 08:58:57;;;;;;;3.85;3.45;;;;;;;;;;5015832;28;20307;-86
2023/11/12 09:01:25;;;;;;;4.82;4.32;;;;;;;;;;5031346;28;20704;-85
2023/11/12 09:03:53;;;;;;;6.20;5.15;;;;;;;;;;5016632;28;20053;-85
2023/11/12 09:06:20;;;;;;;6.03;5.43;;;;;;;;;;5014317;28;20060;-86
2023/11/12 09:08:48;;;;;;;5.28;4.30;;;;;;;;;;5032849;28;20049;-86
2023/11/12 09:11:19;;;;;;;5.68;4.18;;;;;;;;;;5033030;28;20522;-85
2023/11/12 09:13:47;;;;;;;4.30;3.90;;;;;;;;;;5009505;28;20057;-85
2023/11/12 09:16:14;;;;;;;5.22;4.63;;;;;;;;;;5031893;28;20057;-85
2023/11/12 09:18:46;;;;;;;5.75;4.88;;;;;;;;;;5033616;28;20056;-86
2023/11/12 09:21:16;;;;;;;5.85;5.28;;;;;;;;;;5033131;28;20049;-85
2023/11/12 09:23:43;;;;;;;5.57;4.97;;;;;;;;;;5052170;28;20062;-85
2023/11/12 09:26:20;;;;;;;5.45;4.47;;;;;;;;;;5038434;28;20048;-85
2023/11/12 09:28:52;;;;;;;5.13;4.63;;;;;;;;;;5028397;28;20565;-85
2023/11/12 09:31:22;;;;;;;5.22;4.43;;;;;;;;;;5047643;28;20048;-85
2023/11/12 09:33:49;;;;;;;5.68;4.95;;;;;;;;;;5042699;28;20057;-85
2023/11/12 09:36:17;;;;;;;5.90;5.30;;;;;;;;;;5010707;28;20060;-85
2023/11/12 09:38:44;;;;;;;7.63;6.93;;;;;;;;;;5016133;28;20056;-85
2023/11/12 09:41:14;;;;;;;5.25;4.75;;;;;;;;;;5016039;28;20063;-85
2023/11/12 09:43:45;;;;;;;6.75;5.00;;;;;;;;;;5013379;28;20053;-87
2023/11/12 09:46:16;;;;;;;5.00;4.50;;;;;;;;;;5011597;28;20061;-86
2023/11/12 09:48:46;;;;;;;4.15;3.78;;;;;;;;;;5044550;28;20060;-86
2023/11/12 09:51:14;;;;;;;6.30;5.22;;;;;;;;;;5026563;28;20052;-85
2023/11/12 09:53:45;;;;;;;5.38;4.45;;;;;;;;;;5007133;28;20136;-86
2023/11/12 09:56:13;;;;;;;3.72;2.75;;;;;;;;;;5029787;28;20041;-85
2023/11/12 09:58:46;;;;;;;2.85;2.33;;;;;;;;;;5052082;28;20056;-85
2023/11/12 10:01:13;;;;;;;3.47;3.13;;;;;;;;;;5048860;28;20041;-85
2023/11/12 10:03:48;;;;;;;4.70;2.35;;;;;;;;;;5040785;28;20049;-85
2023/11/12 10:06:16;;;;;;;2.60;2.40;;;;;;;;;;5026277;28;20044;-86
2023/11/12 10:08:45;;;;;;;3.80;2.40;;;;;;;;;;5048572;28;20052;-86
2023/11/12 10:11:17;;;;;;;3.65;2.28;;;;;;;;;;5020366;28;20041;-85
2023/11/12 10:13:48;;;;;;;2.75;2.25;;;;;;;;;;5015292;28;20056;-85
2023/11/12 10:16:23;;;;;;;3.30;2.58;;;;;;;;;;5032491;28;20045;-85
2023/11/12 10:18:53;;;;;;;2.78;2.10;;;;;;;;;;5046958;28;20060;-85
2023/11/12 10:21:21;;;;;;;2.63;2.40;;;;;;;;;;5022537;28;20064;-85
2023/11/12 10:24:04;;;;;;;3.15;2.72;;;;;;;;;;5047773;28;20833;-85
2023/11/12 10:26:33;;;;;;;3.43;3.13;;;;;;;;;;5027335;28;20052;-86
2023/11/12 10:29:02;;;;;;;2.83;2.63;;;;;;;;;;5026459;28;20036;-85
2023/11/12 10:31:38;;;;;;;6.68;2.60;;;;;;;;;;5022527;28;20513;-85
2023/11/12 10:34:05;;;;;;;4.03;2.90;;;;;;;;;;5009167;28;20052;-85
2023/11/12 10:36:35;;;;;;;2.92;2.50;;;;;;;;;;5030037;28;20047;-85
2023/11/12 10:39:09;;;;;;;2.03;1.83;;;;;;;;;;5014305;28;20061;-85
2023/11/12 10:41:39;;;;;;;2.70;2.03;;;;;;;;;;5023008;28;20045;-85
2023/11/12 10:44:10;;;;;;;5.57;2.45;;;;;;;;;;5032128;28;20507;-84
2023/11/12 10:46:43;;;;;;;4.05;2.72;;;;;;;;;;5029026;28;20262;-85
2023/11/12 10:49:13;;;;;;;;;;;;;;;;;;5050710;28;20087;-85
2023/11/12 10:51:42;;;;;;;5.30;2.60;;;;;;;;;;5021640;28;20318;-85
2023/11/12 10:54:15;;;;;;;3.45;2.22;;;;;;;;;;5028042;28;20052;-85
2023/11/12 10:56:43;;;;;;;2.45;2.25;;;;;;;;;;5019126;28;20057;-85
2023/11/12 10:59:14;;;;;;;3.08;2.47;;;;;;;;;;5046097;28;20537;-85
2023/11/12 11:01:42;;;;;;;3.78;2.72;;;;;;;;;;5030406;28;20053;-85
2023/11/12 11:04:12;;;;;;;2.20;2.00;;;;;;;;;;5043261;28;20041;-85
2023/11/12 11:06:41;;;;;;;2.63;2.42;;;;;;;;;;5051356;28;20107;-85
2023/11/12 11:09:10;;;;;;;3.38;3.08;;;;;;;;;;5019371;28;20053;-86
2023/11/12 11:11:37;;;;;;;3.60;2.63;;;;;;;;;;5052934;28;20048;-85
2023/11/12 11:14:23;;;;;;;3.13;2.75;;;;;;;;;;5046410;28;20052;-85
2023/11/12 11:16:52;;;;;;;4.25;3.00;;;;;;;;;;5012054;28;20057;-86
2023/11/12 11:19:51;;;;;;;3.25;2.90;;;;;;;;;;5048007;28;20045;-85
2023/11/12 11:22:26;;;;;;;3.50;2.85;;;;;;;;;;5030364;28;20048;-86
2023/11/12 11:24:54;;;;;;;4.88;2.92;;;;;;;;;;5050195;28;20045;-86
2023/11/12 11:27:24;;;;;;;4.68;2.53;;;;;;;;;;5013308;28;20051;-86
2023/11/12 11:30:08;;;;;;;3.28;2.50;;;;;;;;;;5025728;28;20502;-86
2023/11/12 11:32:38;;;;;;;2.65;2.25;;;;;;;;;;5034759;28;20399;-86
2023/11/12 11:35:18;;;;;;;3.85;2.50;;;;;;;;;;5016878;28;20056;-85
2023/11/12 11:38:11;;;;;;;2.33;2.05;;;;;;;;;;5051570;28;20049;-85
2023/11/12 11:40:44;;;;;;;4.32;2.58;;;;;;;;;;5028628;28;20565;-85
2023/11/12 11:43:32;;;;;;;3.40;2.75;;;;;;;;;;5041451;28;20045;-85
2023/11/12 11:46:10;;;;;;;7.10;3.28;;;;;;;;;;5022111;28;20499;-86
2023/11/12 11:49:18;;;;;;;3.28;2.20;;;;;;;;;;5033696;28;20057;-85
2023/11/12 11:51:45;;;;;;;4.57;3.08;;;;;;;;;;5018707;28;20108;-85
2023/11/12 11:54:15;;;;;;;3.97;1.73;;;;;;;;;;5023492;28;20064;-86
2023/11/12 11:56:43;;;;;;;4.13;2.10;;;;;;;;;;5032098;28;20595;-86
2023/11/12 11:59:11;;;;;;;2.80;1.70;;;;;;;;;;5017406;28;20873;-86
2023/11/12 12:01:47;;;;;;;2.00;1.70;;;;;;;;;;5018729;28;20053;-85
2023/11/12 12:04:14;;;;;;;2.10;1.35;;;;;;;;;;5031676;28;20045;-85
2023/11/12 12:06:43;;;;;;;2.70;2.50;;;;;;;;;;5027225;28;20379;-85
2023/11/12 12:09:16;;;;;;;2.63;1.83;;;;;;;;;;5030503;28;20053;-85
2023/11/12 12:11:46;;;;;;;2.25;2.05;;;;;;;;;;5041440;28;20045;-85
2023/11/12 12:14:14;;;;;;;2.75;2.20;;;;;;;;;;5032817;28;20517;-86
2023/11/12 12:16:48;;;;;;;4.90;2.92;;;;;;;;;;5026829;28;20057;-86
2023/11/12 12:19:22;;;;;;;;;;;;;;;;;;5040639;28;20056;-86
2023/11/12 12:21:50;;;;;;;2.28;1.65;;;;;;;;;;5024705;28;20268;-85
2023/11/12 12:24:18;;;;;;;2.55;1.92;;;;;;;;;;5028938;28;20072;-85
2023/11/12 12:26:45;;;;;;;2.25;1.98;;;;;;;;;;5049632;28;20048;-86
2023/11/12 12:29:16;;;;;;;3.28;1.60;;;;;;;;;;5033897;28;20046;-86
2023/11/12 12:31:51;;;;;;;2.38;1.83;;;;;;;;;;5008668;28;20068;-85
2023/11/12 12:34:24;;;;;;;4.70;2.05;;;;;;;;;;5029906;28;20047;-85
2023/11/12 12:36:58;;;;;;;7.25;2.45;;;;;;;;;;5044532;28;20494;-86
2023/11/12 12:39:26;;;;;;;2.78;2.22;;;;;;;;;;5045456;28;20052;-86
2023/11/12 12:42:03;;;;;;;2.65;1.92;;;;;;;;;;5046589;28;20075;-86
2023/11/12 12:44:30;;;;;;;3.47;2.40;;;;;;;;;;5043968;28;20499;-85
2023/11/12 12:47:00;;;;;;;2.80;2.13;;;;;;;;;;5048060;28;20052;-85
2023/11/12 12:49:31;;;;;;;2.80;2.17;;;;;;;;;;5025489;28;20056;-86
2023/11/12 12:51:59;;;;;;;2.50;2.00;;;;;;;;;;5031844;28;20436;-86
2023/11/12 12:54:30;;;;;;;3.58;2.35;;;;;;;;;;5049626;28;20491;-86
2023/11/12 12:56:59;;;;;;;4.07;2.80;;;;;;;;;;5032711;28;20057;-86
2023/11/12 12:59:33;;;;;;;3.65;2.00;;;;;;;;;;5014806;28;20403;-87
2023/11/12 13:02:09;;;;;;;3.95;2.83;;;;;;;;;;5047415;28;20045;-86
2023/11/12 13:04:36;;;;;;;3.03;2.65;;;;;;;;;;5050271;28;20395;-86
2023/11/12 13:07:06;;;;;;;3.05;2.33;;;;;;;;;;5032383;28;20049;-86
2023/11/12 13:09:33;;;;;;;2.92;2.15;;;;;;;;;;5044057;28;20049;-86
2023/11/12 13:12:02;;;;;;;5.22;2.75;;;;;;;;;;5048387;28;20050;-86
2023/11/12 13:14:33;;;;;;;6.15;3.60;;;;;;;;;;5038817;28;20415;-86
2023/11/12 13:17:03;;;;;;;3.65;3.30;;;;;;;;;;5028401;28;20107;-86
2023/11/12 13:19:33;;;;;;;3.83;2.65;;;;;;;;;;5009515;28;20057;-86
2023/11/12 13:22:00;;;;;;;3.08;2.53;;;;;;;;;;5053762;28;20056;-86
2023/11/12 13:24:28;;;;;;;3.00;1.90;;;;;;;;;;5028994;28;20044;-86
2023/11/12 13:26:56;;;;;;;3.20;1.92;;;;;;;;;;5006803;28;20053;-86
2023/11/12 13:29:27;;;;;;;3.72;2.60;;;;;;;;;;5026004;28;20053;-88
2023/11/12 13:31:56;;;;;;;2.53;2.33;;;;;;;;;;5027855;28;20085;-86
2023/11/12 13:34:23;;;;;;;2.88;1.80;;;;;;;;;;5009854;28;20348;-86
2023/11/12 13:36:52;;;;;;;2.80;1.95;;;;;;;;;;5028871;28;20041;-86
2023/11/12 13:39:24;;;;;;;2.42;2.22;;;;;;;;;;5052157;28;20157;-86
2023/11/12 13:41:51;;;;;;;3.08;2.10;;;;;;;;;;5047934;28;20041;-86
2023/11/12 13:44:24;;;;;;;3.00;1.88;;;;;;;;;;5047964;28;20045;-86
2023/11/12 13:46:54;;;;;;;3.58;1.88;;;;;;;;;;5007388;23;20050;-83
2023/11/12 13:49:26;;;;;;;1.95;1.58;;;;;;;;;;4974108;28;20066;-80
2023/11/12 13:52:02;;;;;;;3.63;2.83;;;;;;;;;;4974127;28;20057;-80
2023/11/12 13:54:32;;;;;;;3.33;2.45;;;;;;;;;;4955930;28;20054;-80
2023/11/12 13:57:00;;;;;;;2.60;2.05;;;;;;;;;;4982173;28;20054;-80
2023/11/12 13:59:32;;;;;;;2.92;2.45;;;;;;;;;;4957823;28;20421;-80
2023/11/12 14:01:59;;;;;;;7.43;3.13;;;;;;;;;;4938072;28;20054;-80
2023/11/12 14:04:27;;;;;;;3.83;2.72;;;;;;;;;;4957378;28;20051;-80
2023/11/12 14:06:58;;;;;;;4.63;2.65;;;;;;;;;;4956447;28;20050;-80
2023/11/12 14:09:25;;;;;;;4.38;3.50;;;;;;;;;;4957935;28;20047;-80
2023/11/12 14:11:53;;;;;;;3.53;3.05;;;;;;;;;;4974293;28;20512;-80
2023/11/12 14:14:22;;;;;;;4.00;3.35;;;;;;;;;;4962464;28;20054;-80
2023/11/12 14:16:51;;;;;;;2.58;2.38;;;;;;;;;;4938377;28;20055;-81
2023/11/12 14:19:18;;;;;;;4.25;2.97;;;;;;;;;;4951090;28;20051;-80
2023/11/12 14:21:45;;;;;;;4.20;3.65;;;;;;;;;;4937919;28;20066;-80
2023/11/12 14:24:17;;;;;;;3.40;3.10;;;;;;;;;;4956271;28;20058;-80
2023/11/12 14:26:46;;;;;;;3.60;3.17;;;;;;;;;;4958617;28;20058;-80
2023/11/12 14:29:15;;;;;;;4.53;3.42;;;;;;;;;;4943557;28;20066;-80
2023/11/12 14:31:43;;;;;;;5.88;3.85;;;;;;;;;;4959457;28;20050;-80
2023/11/12 14:34:12;;;;;;;5.25;3.65;;;;;;;;;;4944925;28;20047;-80
2023/11/12 14:36:42;;;;;;;3.72;2.65;;;;;;;;;;4962005;28;20524;-80
2023/11/12 14:39:10;;;;;;;5.22;2.72;;;;;;;;;;4958760;28;20713;-80
2023/11/12 14:41:43;;;;;;;5.63;4.40;;;;;;;;;;4961959;28;20058;-80
2023/11/12 14:44:10;;;;;;;3.55;3.00;;;;;;;;;;4945641;28;20058;-80
2023/11/12 14:46:40;;;;;;;2.78;2.50;;;;;;;;;;4959449;28;20081;-80
2023/11/12 14:49:09;;;;;;;4.35;2.88;;;;;;;;;;4943091;28;20421;-80
2023/11/12 14:51:40;;;;;;;2.47;1.98;;;;;;;;;;4962769;28;20049;-80
2023/11/12 14:54:13;;;;;;;3.00;2.53;;;;;;;;;;4974641;28;20713;-80
2023/11/12 14:56:42;;;;;;;2.60;1.77;;;;;;;;;;4952525;28;20046;-80
2023/11/12 14:59:11;;;;;;;2.97;2.00;;;;;;;;;;4946880;28;20046;-80
2023/11/12 15:01:42;;;;;;;2.75;2.10;;;;;;;;;;4960368;28;20401;-80
2023/11/12 15:04:12;;;;;;;2.67;1.95;;;;;;;;;;4978040;28;20062;-80
2023/11/12 15:06:44;;;;;;;2.75;1.83;;;;;;;;;;4961796;28;20398;-80
2023/11/12 15:09:12;;;;;;;2.63;2.13;;;;;;;;;;4959735;28;20065;-80
2023/11/12 15:11:40;;;;;;;4.85;2.38;;;;;;;;;;4964381;28;20059;-80
2023/11/12 15:14:11;;;;;;;4.03;2.83;;;;;;;;;;4977570;28;20051;-80
2023/11/12 15:16:38;;;;;;;2.45;2.22;;;;;;;;;;4963074;28;20055;-80
2023/11/12 15:19:06;;;;;;;3.10;1.90;;;;;;;;;;4943751;28;20043;-80
2023/11/12 15:21:33;;;;;;;2.72;2.47;;;;;;;;;;4979366;28;20650;-80
2023/11/12 15:24:03;;;;;;;4.40;2.25;;;;;;;;;;4947340;28;20050;-80
2023/11/12 15:26:30;;;;;;;2.53;2.30;;;;;;;;;;4945431;28;20057;-80
2023/11/12 15:28:57;;;;;;;2.72;1.80;;;;;;;;;;4959830;28;20043;-80
2023/11/12 15:31:28;;;;;;;5.68;2.28;;;;;;;;;;4961702;28;20055;-80
2023/11/12 15:33:58;;;;;;;3.15;1.90;;;;;;;;;;4969497;28;20215;-80
2023/11/12 15:36:28;;;;;;;3.40;2.15;;;;;;;;;;4979728;28;20050;-80
2023/11/12 15:38:56;;;;;;;3.78;2.55;;;;;;;;;;4945431;28;20051;-80
2023/11/12 15:41:23;;;;;;;3.53;2.00;;;;;;;;;;4955091;28;20062;-80
2023/11/12 15:43:54;;;;;;;4.38;2.30;;;;;;;;;;4982397;28;20051;-80
2023/11/12 15:46:24;;;;;;;4.40;2.15;;;;;;;;;;4975283;28;20054;-80
2023/11/12 15:48:53;;;;;;;2.85;2.25;;;;;;;;;;4949998;28;20055;-80
2023/11/12 15:51:23;;;;;;;2.70;2.47;;;;;;;;;;4972244;28;20050;-80